Time;durP1;ratioP1;P1;durP2;ratioP2;P2;SDS_P1;SDS_P2;PMS_P1;PMS_P2;Temp;Humidity;BMP_temperature;BMP_pressure;BME280_temperature;BME280_humidity;BME280_pressure;Samples;Min_cycle;Max_cycle;Signal;HPM_P1;HPM_P2
2021/03/04 00:00:34;;;;;;;25.40;17.80;;;7.50;99.90;;;;;;4957755;28;20090;-76
2021/03/04 00:03:02;;;;;;;22.30;15.65;;;7.60;99.90;;;;;;4966537;28;20027;-76
2021/03/04 00:05:28;;;;;;;27.02;17.75;;;7.60;99.90;;;;;;4958286;28;20023;-76
2021/03/04 00:07:54;;;;;;;31.17;17.65;;;7.60;99.90;;;;;;4964842;28;20107;-76
2021/03/04 00:10:21;;;;;;;24.40;17.17;;;7.60;99.90;;;;;;4959947;28;20453;-78
2021/03/04 00:12:47;;;;;;;24.13;15.82;;;7.50;99.90;;;;;;4964707;28;20038;-77
2021/03/04 00:15:16;;;;;;;26.13;17.25;;;7.50;99.90;;;;;;4964830;28;20557;-76
2021/03/04 00:17:45;;;;;;;32.15;17.05;;;7.50;99.90;;;;;;4962608;28;20031;-76
2021/03/04 00:20:23;;;;;;;26.23;17.33;;;7.50;99.90;;;;;;4965464;28;20117;-76
2021/03/04 00:22:49;;;;;;;24.58;15.88;;;7.60;99.90;;;;;;4961807;28;20509;-77
2021/03/04 00:25:17;;;;;;;22.38;14.57;;;7.50;99.90;;;;;;4966581;28;20031;-76
2021/03/04 00:27:43;;;;;;;28.23;16.73;;;7.60;99.90;;;;;;4961121;28;20038;-77
2021/03/04 00:30:10;;;;;;;21.23;14.90;;;7.60;99.90;;;;;;4978004;28;20019;-76
2021/03/04 00:32:37;;;;;;;21.50;15.57;;;7.50;99.90;;;;;;4973427;28;20093;-76
2021/03/04 00:35:05;;;;;;;22.50;14.50;;;7.50;99.90;;;;;;4964115;28;20034;-78
2021/03/04 00:37:30;;;;;;;21.50;15.10;;;7.50;99.90;;;;;;4962908;28;20056;-76
2021/03/04 00:39:56;;;;;;;20.35;16.02;;;7.40;99.90;;;;;;4967681;28;20035;-76
2021/03/04 00:42:22;;;;;;;19.67;13.18;;;7.30;99.90;;;;;;4962855;28;20081;-77
2021/03/04 00:44:48;;;;;;;23.33;15.23;;;7.20;99.90;;;;;;4951450;28;20383;-76
2021/03/04 00:47:14;;;;;;;21.40;14.82;;;7.20;99.90;;;;;;4975958;28;20090;-76
2021/03/04 00:49:40;;;;;;;20.35;14.02;;;7.20;99.90;;;;;;4963643;28;20047;-76
2021/03/04 00:52:07;;;;;;;21.77;14.55;;;7.20;99.90;;;;;;4971319;28;20504;-76
2021/03/04 00:54:32;;;;;;;19.30;14.35;;;7.10;99.90;;;;;;4972932;28;20034;-76
2021/03/04 00:56:58;;;;;;;22.83;14.73;;;7.30;99.90;;;;;;4962333;28;20031;-77
2021/03/04 00:59:24;;;;;;;20.23;14.45;;;7.40;99.90;;;;;;4957046;28;20062;-76
2021/03/04 01:01:50;;;;;;;17.55;12.93;;;7.30;99.90;;;;;;4958967;28;20083;-76
2021/03/04 01:04:16;;;;;;;15.60;12.02;;;7.30;99.90;;;;;;4962576;28;20031;-76
2021/03/04 01:06:42;;;;;;;16.45;10.55;;;7.30;99.90;;;;;;4966122;28;20058;-75
2021/03/04 01:09:08;;;;;;;18.08;12.52;;;7.20;99.90;;;;;;4957056;28;20027;-75
2021/03/04 01:11:34;;;;;;;18.15;11.77;;;7.10;99.90;;;;;;4960720;28;20622;-76
2021/03/04 01:14:00;;;;;;;17.88;11.82;;;7.10;99.90;;;;;;4968489;28;20046;-76
2021/03/04 01:16:26;;;;;;;22.80;14.02;;;7.10;99.90;;;;;;4963306;28;20069;-76
2021/03/04 01:18:52;;;;;;;19.90;12.60;;;7.10;99.90;;;;;;4959844;28;20031;-76
2021/03/04 01:21:18;;;;;;;17.25;11.23;;;7.20;99.90;;;;;;4964558;28;20027;-76
2021/03/04 01:23:44;;;;;;;18.00;12.85;;;7.20;99.90;;;;;;4969477;28;20030;-76
2021/03/04 01:26:11;;;;;;;21.95;15.18;;;7.10;99.90;;;;;;4964734;28;20042;-76
2021/03/04 01:28:37;;;;;;;24.20;16.25;;;7.00;99.90;;;;;;4970827;28;20050;-75
2021/03/04 01:31:03;;;;;;;20.30;15.23;;;6.90;99.90;;;;;;4959954;28;20042;-76
2021/03/04 01:33:28;;;;;;;20.98;16.60;;;7.00;99.90;;;;;;4963116;28;20086;-76
2021/03/04 01:35:54;;;;;;;24.48;16.85;;;7.00;99.90;;;;;;4958616;28;20027;-75
2021/03/04 01:38:20;;;;;;;25.85;16.27;;;7.00;99.90;;;;;;4966947;28;20027;-79
2021/03/04 01:40:46;;;;;;;23.58;17.65;;;7.00;99.90;;;;;;4969898;28;20022;-76
2021/03/04 01:43:12;;;;;;;27.25;20.20;;;7.00;99.90;;;;;;4947922;28;20032;-75
2021/03/04 01:45:38;;;;;;;23.50;17.48;;;6.90;99.90;;;;;;4960616;28;20034;-76
2021/03/04 01:48:04;;;;;;;25.38;17.48;;;6.90;99.90;;;;;;4961149;28;20154;-79
2021/03/04 01:50:31;;;;;;;24.63;16.92;;;6.80;99.90;;;;;;4968546;28;20018;-75
2021/03/04 01:52:57;;;;;;;22.98;17.27;;;6.90;99.90;;;;;;4972348;28;20031;-76
2021/03/04 01:55:23;;;;;;;22.60;16.30;;;7.00;99.90;;;;;;4962974;28;20019;-76
2021/03/04 01:57:50;;;;;;;24.60;16.88;;;7.00;99.90;;;;;;4964954;28;20113;-76
2021/03/04 02:00:17;;;;;;;23.55;16.85;;;7.00;99.90;;;;;;4962160;28;20500;-76
2021/03/04 02:02:44;;;;;;;24.05;15.38;;;7.00;99.90;;;;;;4960478;28;20037;-75
2021/03/04 02:05:12;;;;;;;21.35;16.00;;;7.00;99.90;;;;;;4964260;28;20047;-75
2021/03/04 02:08:11;;;;;;;23.20;15.05;;;7.00;99.90;;;;;;4962493;28;20043;-76
2021/03/04 02:10:49;;;;;;;22.33;14.10;;;6.90;99.90;;;;;;4963446;28;20023;-75
2021/03/04 02:13:22;;;;;;;16.92;12.20;;;6.90;99.90;;;;;;4960198;28;20039;-75
2021/03/04 02:16:11;;;;;;;19.38;12.23;;;6.90;99.90;;;;;;4959119;28;20055;-76
2021/03/04 02:18:46;;;;;;;18.85;12.63;;;6.90;99.90;;;;;;4949463;28;20030;-76
2021/03/04 02:21:39;;;;;;;18.10;11.88;;;6.90;99.90;;;;;;4958405;28;20063;-75
2021/03/04 02:24:10;;;;;;;16.38;11.02;;;6.80;99.90;;;;;;4962027;28;20027;-76
2021/03/04 02:26:54;;;;;;;16.52;12.13;;;6.80;99.90;;;;;;4954538;28;20067;-75
2021/03/04 02:29:23;;;;;;;15.50;11.73;;;6.80;99.90;;;;;;4962100;28;20046;-75
2021/03/04 02:31:52;;;;;;;16.67;11.05;;;6.80;99.90;;;;;;4966241;28;20445;-76
2021/03/04 02:34:21;;;;;;;15.32;10.00;;;6.70;99.90;;;;;;4954995;29;20110;-75
2021/03/04 02:36:49;;;;;;;15.07;11.20;;;6.70;99.90;;;;;;4959600;28;20098;-76
2021/03/04 02:39:17;;;;;;;14.85;10.90;;;6.70;99.90;;;;;;4963227;28;20105;-76
2021/03/04 02:41:44;;;;;;;15.38;12.65;;;6.70;99.90;;;;;;4961446;28;20034;-75
2021/03/04 02:44:11;;;;;;;16.33;12.48;;;6.60;99.90;;;;;;4965935;28;20085;-77
2021/03/04 02:46:39;;;;;;;18.38;10.55;;;6.60;99.90;;;;;;4957768;28;20032;-75
2021/03/04 02:49:06;;;;;;;17.98;11.73;;;6.60;99.90;;;;;;4954624;28;20027;-76
2021/03/04 02:51:35;;;;;;;18.60;13.15;;;6.60;99.90;;;;;;4955462;28;20015;-76
2021/03/04 02:54:02;;;;;;;17.77;13.05;;;6.60;99.90;;;;;;4960778;28;20127;-76
2021/03/04 02:56:29;;;;;;;17.80;12.35;;;6.60;99.90;;;;;;4961447;28;20477;-76
2021/03/04 02:58:58;;;;;;;15.57;11.73;;;6.70;99.90;;;;;;4963133;28;20082;-75
2021/03/04 03:01:27;;;;;;;18.48;13.20;;;6.70;99.90;;;;;;4960085;28;20026;-75
2021/03/04 03:03:54;;;;;;;15.68;11.50;;;6.80;99.90;;;;;;4967928;28;20114;-76
2021/03/04 03:06:22;;;;;;;14.68;10.82;;;6.80;99.90;;;;;;4965038;28;20023;-75
2021/03/04 03:08:49;;;;;;;18.58;12.18;;;6.80;99.90;;;;;;4957345;28;20034;-76
2021/03/04 03:11:16;;;;;;;16.40;10.82;;;6.70;99.90;;;;;;4966650;28;20023;-76
2021/03/04 03:13:49;;;;;;;15.07;11.20;;;6.70;99.90;;;;;;4961320;28;20531;-76
2021/03/04 03:16:15;;;;;;;13.25;10.73;;;6.70;99.90;;;;;;4956578;28;20034;-76
2021/03/04 03:18:41;;;;;;;12.73;10.60;;;6.60;99.90;;;;;;4963808;28;20043;-76
2021/03/04 03:21:07;;;;;;;17.48;10.75;;;6.50;99.90;;;;;;4952766;28;20034;-75
2021/03/04 03:23:34;;;;;;;16.40;12.25;;;6.50;99.90;;;;;;4954043;28;20035;-76
2021/03/04 03:25:59;;;;;;;18.25;11.50;;;6.40;99.90;;;;;;4962075;28;20035;-75
2021/03/04 03:28:26;;;;;;;18.20;11.52;;;6.40;99.90;;;;;;4952507;28;20026;-75
2021/03/04 03:30:53;;;;;;;15.45;11.05;;;6.40;99.90;;;;;;4960692;28;20035;-75
2021/03/04 03:33:19;;;;;;;19.90;12.98;;;6.40;99.90;;;;;;4966966;28;20035;-76
2021/03/04 03:35:46;;;;;;;18.02;11.98;;;6.40;99.90;;;;;;4960175;28;20024;-75
2021/03/04 03:38:14;;;;;;;20.00;12.48;;;6.40;99.90;;;;;;4965926;28;20019;-76
2021/03/04 03:40:42;;;;;;;20.50;11.95;;;6.40;99.90;;;;;;4968089;28;20021;-76
2021/03/04 03:43:11;;;;;;;21.80;13.52;;;6.50;99.90;;;;;;4963532;28;20047;-75
2021/03/04 03:45:41;;;;;;;18.05;12.63;;;6.40;99.90;;;;;;4966087;28;20197;-76
2021/03/04 03:48:10;;;;;;;15.15;11.32;;;6.40;99.90;;;;;;4965139;28;20027;-76
2021/03/04 03:50:37;;;;;;;19.10;13.80;;;6.40;99.90;;;;;;4971756;28;20027;-76
2021/03/04 03:53:03;;;;;;;22.73;13.68;;;6.40;99.90;;;;;;4973169;28;20042;-76
2021/03/04 03:55:30;;;;;;;22.17;13.55;;;6.40;99.90;;;;;;4971993;28;20023;-76
2021/03/04 03:57:56;;;;;;;20.13;13.43;;;6.40;99.90;;;;;;4972387;28;20027;-77
2021/03/04 04:00:24;;;;;;;19.83;13.73;;;6.40;99.90;;;;;;4968835;28;20605;-77
2021/03/04 04:03:01;;;;;;;20.33;14.15;;;6.40;99.90;;;;;;4968411;28;20078;-76
2021/03/04 04:05:28;;;;;;;18.63;12.68;;;6.30;99.90;;;;;;4967217;28;20042;-76
2021/03/04 04:07:55;;;;;;;21.95;13.75;;;6.30;99.90;;;;;;4965040;28;20031;-76
2021/03/04 04:10:25;;;;;;;20.45;14.20;;;6.40;99.90;;;;;;4968369;28;20190;-76
2021/03/04 04:12:51;;;;;;;23.83;14.77;;;6.30;99.90;;;;;;4968704;28;20038;-76
2021/03/04 04:15:18;;;;;;;19.33;14.43;;;6.30;99.90;;;;;;4966279;28;20163;-76
2021/03/04 04:17:44;;;;;;;19.58;13.57;;;6.30;99.90;;;;;;4966641;28;20122;-76
2021/03/04 04:20:11;;;;;;;19.15;14.25;;;6.30;99.90;;;;;;4967475;28;20054;-77
2021/03/04 04:22:38;;;;;;;19.35;13.77;;;6.30;99.90;;;;;;4957459;28;20031;-76
2021/03/04 04:25:04;;;;;;;20.13;14.48;;;6.30;99.90;;;;;;4969331;28;20520;-76
2021/03/04 04:27:30;;;;;;;19.55;13.98;;;6.30;99.90;;;;;;4965471;28;20031;-76
2021/03/04 04:29:56;;;;;;;20.45;14.65;;;6.30;99.90;;;;;;4970393;28;20019;-76
2021/03/04 04:32:21;;;;;;;20.45;13.15;;;6.30;99.90;;;;;;4970538;28;20054;-76
2021/03/04 04:34:47;;;;;;;20.52;12.88;;;6.30;99.90;;;;;;4969389;28;20026;-76
2021/03/04 04:37:13;;;;;;;21.27;13.75;;;6.30;99.90;;;;;;4960852;28;20388;-76
2021/03/04 04:39:39;;;;;;;22.70;14.85;;;6.20;99.90;;;;;;4964268;28;20065;-76
2021/03/04 04:42:06;;;;;;;26.08;17.27;;;6.20;99.90;;;;;;4956732;28;20409;-75
2021/03/04 04:44:32;;;;;;;22.73;16.42;;;6.10;99.90;;;;;;4971829;28;20034;-79
2021/03/04 04:46:58;;;;;;;21.85;13.55;;;6.10;99.90;;;;;;4966302;28;20035;-76
2021/03/04 04:49:23;;;;;;;18.17;13.50;;;6.20;99.90;;;;;;4968792;28;20109;-75
2021/03/04 04:51:49;;;;;;;24.48;14.10;;;6.10;99.90;;;;;;4957036;28;20043;-75
2021/03/04 04:54:15;;;;;;;20.75;13.68;;;6.10;99.90;;;;;;4966106;28;20491;-79
2021/03/04 04:56:41;;;;;;;22.08;13.05;;;6.10;99.90;;;;;;4970692;28;20033;-76
2021/03/04 04:59:07;;;;;;;24.17;14.25;;;6.10;99.90;;;;;;4968808;28;20105;-76
2021/03/04 05:01:33;;;;;;;23.75;14.45;;;6.10;99.90;;;;;;4964931;28;20085;-76
2021/03/04 05:03:59;;;;;;;24.00;15.45;;;6.10;99.90;;;;;;4966541;28;20027;-76
2021/03/04 05:06:24;;;;;;;29.48;15.63;;;6.10;99.90;;;;;;4971645;28;20037;-75
2021/03/04 05:08:50;;;;;;;23.85;14.73;;;6.10;99.90;;;;;;4962804;28;20035;-75
2021/03/04 05:11:16;;;;;;;26.45;14.18;;;6.20;99.90;;;;;;4968924;28;20046;-76
2021/03/04 05:13:44;;;;;;;20.67;13.88;;;6.30;99.90;;;;;;4960752;28;20031;-75
2021/03/04 05:16:10;;;;;;;24.10;15.70;;;6.30;99.90;;;;;;4965507;28;20019;-75
2021/03/04 05:18:36;;;;;;;19.75;15.07;;;6.20;99.90;;;;;;4958697;28;20441;-76
2021/03/04 05:21:02;;;;;;;23.80;16.05;;;6.20;99.90;;;;;;4970492;28;20035;-76
2021/03/04 05:23:28;;;;;;;24.67;16.02;;;6.30;99.90;;;;;;4968350;28;20027;-76
2021/03/04 05:25:54;;;;;;;23.98;15.63;;;6.10;99.90;;;;;;4940633;28;20059;-75
2021/03/04 05:28:20;;;;;;;30.35;16.83;;;6.20;99.90;;;;;;4952479;28;20494;-76
2021/03/04 05:30:46;;;;;;;19.52;14.77;;;6.20;99.90;;;;;;4965602;28;20034;-76
2021/03/04 05:33:11;;;;;;;23.92;15.15;;;6.20;99.90;;;;;;4957610;28;20031;-76
2021/03/04 05:35:37;;;;;;;32.60;16.85;;;6.20;99.90;;;;;;4965324;28;20071;-75
2021/03/04 05:38:03;;;;;;;22.00;15.40;;;6.10;99.90;;;;;;4973992;28;20038;-78
2021/03/04 05:40:29;;;;;;;26.13;18.52;;;6.10;99.90;;;;;;4963972;28;20059;-76
2021/03/04 05:42:57;;;;;;;22.60;15.65;;;6.10;99.90;;;;;;4959541;28;20036;-75
2021/03/04 05:45:25;;;;;;;28.63;15.38;;;6.20;99.90;;;;;;4961587;28;20023;-75
2021/03/04 05:47:52;;;;;;;33.63;17.35;;;6.10;99.90;;;;;;4958848;28;20110;-76
2021/03/04 05:50:20;;;;;;;25.02;15.88;;;6.10;99.90;;;;;;4968434;28;20502;-75
2021/03/04 05:53:10;;;;;;;27.08;17.48;;;6.10;99.90;;;;;;4972944;28;20023;-76
2021/03/04 05:55:37;;;;;;;24.30;16.02;;;6.20;99.90;;;;;;4960024;28;20093;-76
2021/03/04 05:58:05;;;;;;;28.88;18.45;;;6.20;99.90;;;;;;4966067;28;20035;-75
2021/03/04 06:00:31;;;;;;;27.33;16.27;;;6.20;99.90;;;;;;4963240;28;20027;-76
2021/03/04 06:02:58;;;;;;;34.65;18.33;;;6.10;99.90;;;;;;4967057;28;20433;-80
2021/03/04 06:05:25;;;;;;;28.08;18.23;;;6.20;99.90;;;;;;4962948;28;20130;-76
2021/03/04 06:07:51;;;;;;;32.58;17.80;;;6.20;99.90;;;;;;4967357;28;20389;-75
2021/03/04 06:10:17;;;;;;;27.42;17.48;;;6.10;99.90;;;;;;4959479;28;20031;-76
2021/03/04 06:12:43;;;;;;;30.70;19.30;;;6.20;99.90;;;;;;4957570;28;20026;-76
2021/03/04 06:15:10;;;;;;;27.80;17.60;;;6.20;99.90;;;;;;4965504;28;20059;-76
2021/03/04 06:17:36;;;;;;;31.40;17.50;;;6.20;99.90;;;;;;4959533;28;20027;-76
2021/03/04 06:20:09;;;;;;;26.00;18.23;;;6.20;99.90;;;;;;4962642;28;20039;-76
2021/03/04 06:22:36;;;;;;;32.05;18.83;;;6.20;99.90;;;;;;4971163;28;20026;-74
2021/03/04 06:25:10;;;;;;;29.90;18.83;;;6.20;99.90;;;;;;4961774;28;20512;-76
2021/03/04 06:27:39;;;;;;;28.50;17.38;;;6.30;99.90;;;;;;4950931;28;20035;-75
2021/03/04 06:30:11;;;;;;;25.10;19.13;;;6.40;99.90;;;;;;4949122;28;20402;-74
2021/03/04 06:32:38;;;;;;;33.70;18.23;;;6.50;99.90;;;;;;4944355;28;20753;-75
2021/03/04 06:35:06;;;;;;;23.08;16.80;;;6.50;99.90;;;;;;4959998;28;20027;-75
2021/03/04 06:37:33;;;;;;;28.08;18.77;;;6.60;99.90;;;;;;4960630;28;20117;-73
2021/03/04 06:39:59;;;;;;;28.23;18.35;;;6.70;99.90;;;;;;4950142;28;20031;-75
2021/03/04 06:42:25;;;;;;;32.72;18.65;;;6.70;99.90;;;;;;4960403;28;20106;-75
2021/03/04 06:44:54;;;;;;;27.15;18.88;;;6.80;99.90;;;;;;4958507;28;20062;-71
2021/03/04 06:47:28;;;;;;;34.92;20.45;;;6.90;99.90;;;;;;4964415;28;20426;-71
2021/03/04 06:49:55;;;;;;;29.08;18.38;;;7.00;99.90;;;;;;4961196;28;20027;-76
2021/03/04 06:52:30;;;;;;;24.55;17.13;;;7.00;99.90;;;;;;4961134;28;20486;-71
2021/03/04 06:55:12;;;;;;;39.00;19.30;;;7.10;99.90;;;;;;4966835;28;20027;-72
2021/03/04 06:57:37;;;;;;;27.00;17.23;;;7.10;99.90;;;;;;4969355;28;20023;-72
2021/03/04 07:00:17;;;;;;;33.60;18.38;;;7.30;99.90;;;;;;4969019;28;20596;-73
2021/03/04 07:02:54;;;;;;;34.97;18.83;;;7.60;99.90;;;;;;4963285;28;20393;-74
2021/03/04 07:05:23;;;;;;;29.08;19.50;;;7.70;99.90;;;;;;4960439;28;20038;-75
2021/03/04 07:07:54;;;;;;;28.73;19.65;;;7.80;99.90;;;;;;4960623;28;20122;-75
2021/03/04 07:10:24;;;;;;;26.23;18.38;;;7.80;99.90;;;;;;4968332;28;20027;-75
2021/03/04 07:12:51;;;;;;;30.02;18.63;;;7.90;99.90;;;;;;4963808;28;20078;-74
2021/03/04 07:15:19;;;;;;;27.70;19.30;;;7.90;99.90;;;;;;4961128;28;20027;-74
2021/03/04 07:17:50;;;;;;;33.67;21.65;;;8.00;99.90;;;;;;4957134;28;20040;-75
2021/03/04 07:20:18;;;;;;;33.03;21.33;;;8.10;99.90;;;;;;4957995;28;20031;-75
2021/03/04 07:22:51;;;;;;;32.60;19.42;;;8.30;99.90;;;;;;4966372;28;20031;-75
2021/03/04 07:25:17;;;;;;;29.70;19.35;;;8.40;99.90;;;;;;4964938;28;20019;-75
2021/03/04 07:27:44;;;;;;;30.67;19.35;;;8.50;99.90;;;;;;4940933;28;20470;-76
2021/03/04 07:30:11;;;;;;;35.17;20.83;;;8.50;99.90;;;;;;4954486;28;20084;-75
2021/03/04 07:32:38;;;;;;;35.83;20.17;;;8.60;99.90;;;;;;4966400;28;20039;-75
2021/03/04 07:35:11;;;;;;;42.53;20.23;;;8.80;99.90;;;;;;4964160;28;20490;-75
2021/03/04 07:37:53;;;;;;;34.78;21.80;;;8.80;99.90;;;;;;4953865;28;20652;-74
2021/03/04 07:40:31;;;;;;;32.05;20.30;;;9.00;99.90;;;;;;4952643;28;20043;-74
2021/03/04 07:43:06;;;;;;;41.28;21.15;;;9.20;99.90;;;;;;4956627;28;20050;-75
2021/03/04 07:45:32;;;;;;;43.75;23.70;;;9.30;99.90;;;;;;4967023;28;20468;-74
2021/03/04 07:48:08;;;;;;;28.05;18.40;;;9.30;99.90;;;;;;4957568;28;20140;-75
2021/03/04 07:50:34;;;;;;;34.90;21.50;;;9.40;99.90;;;;;;4964707;28;20401;-75
2021/03/04 07:53:34;;;;;;;37.47;20.33;;;9.50;99.90;;;;;;4967296;28;20046;-75
2021/03/04 07:56:00;;;;;;;35.75;19.95;;;9.80;99.90;;;;;;4955951;28;20027;-75
2021/03/04 07:58:36;;;;;;;33.50;20.55;;;9.90;99.90;;;;;;4957640;28;20034;-75
2021/03/04 08:01:11;;;;;;;38.30;18.95;;;10.10;99.90;;;;;;4962230;28;20062;-77
2021/03/04 08:03:52;;;;;;;36.72;19.55;;;10.30;99.90;;;;;;4951290;28;20078;-75
2021/03/04 08:06:21;;;;;;;38.55;20.25;;;10.40;99.90;;;;;;4950172;28;20027;-75
2021/03/04 08:08:48;;;;;;;40.30;19.90;;;10.40;99.90;;;;;;4954265;28;20035;-75
2021/03/04 08:12:21;;;;;;;36.60;19.48;;;10.50;99.90;;;;;;4961782;28;20078;-75
2021/03/04 08:16:08;;;;;;;34.92;22.35;;;10.80;99.90;;;;;;4904522;29;20114;-75
2021/03/04 08:18:33;;;;;;;35.65;22.10;;;10.90;99.90;;;;;;4845446;29;20521;-75
2021/03/04 08:21:04;;;;;;;40.35;20.90;;;11.00;99.90;;;;;;4896223;29;20128;-75
2021/03/04 08:23:56;;;;;;;36.47;23.92;;;11.20;99.90;;;;;;4948402;28;20039;-75
2021/03/04 08:26:26;;;;;;;35.90;23.02;;;11.30;99.90;;;;;;4958805;28;20037;-76
2021/03/04 08:29:06;;;;;;;38.63;22.80;;;11.40;99.90;;;;;;4967223;28;20291;-79
2021/03/04 08:31:41;;;;;;;32.03;22.13;;;11.50;99.90;;;;;;4959903;28;20508;-78
2021/03/04 08:34:07;;;;;;;33.05;22.33;;;11.50;99.90;;;;;;4967666;28;20032;-77
2021/03/04 08:36:44;;;;;;;30.73;22.70;;;11.60;99.90;;;;;;4963676;28;20082;-78
2021/03/04 08:39:10;;;;;;;28.90;21.00;;;11.70;99.90;;;;;;4953902;28;20054;-77
2021/03/04 08:41:36;;;;;;;30.73;21.73;;;11.80;99.90;;;;;;4962230;28;20031;-77
2021/03/04 08:44:18;;;;;;;32.45;21.33;;;11.80;99.90;;;;;;4956395;28;20078;-77
2021/03/04 08:46:50;;;;;;;33.40;23.00;;;11.90;99.90;;;;;;4953683;28;20183;-76
2021/03/04 08:49:19;;;;;;;;;;;12.00;99.90;;;;;;4955555;28;20514;-76
2021/03/04 08:51:46;;;;;;;33.60;23.92;;;12.00;99.90;;;;;;4959338;28;19945;-75
2021/03/04 08:54:19;;;;;;;30.40;23.90;;;12.00;99.90;;;;;;4960191;28;20609;-75
2021/03/04 08:57:01;;;;;;;34.92;24.77;;;12.30;99.90;;;;;;4956696;28;20031;-76
2021/03/04 08:59:27;;;;;;;38.38;25.80;;;12.40;99.90;;;;;;4967564;28;20109;-75
2021/03/04 09:01:54;;;;;;;35.13;27.00;;;12.50;99.90;;;;;;4969931;28;20023;-74
2021/03/04 09:04:21;;;;;;;36.08;27.27;;;12.60;99.90;;;;;;4970356;28;20610;-76
2021/03/04 09:06:47;;;;;;;37.33;26.13;;;12.60;99.90;;;;;;4966010;28;20027;-77
2021/03/04 09:09:23;;;;;;;36.40;26.30;;;12.60;99.90;;;;;;4969683;28;20078;-77
2021/03/04 09:11:49;;;;;;;35.83;26.23;;;12.80;99.90;;;;;;4957353;28;20037;-76
2021/03/04 09:14:16;;;;;;;45.17;32.58;;;12.80;99.90;;;;;;4967672;28;20014;-76
2021/03/04 09:16:51;;;;;;;40.42;30.60;;;12.90;99.90;;;;;;4963012;28;20082;-77
2021/03/04 09:19:31;;;;;;;45.13;30.45;;;12.90;99.90;;;;;;4969069;28;20035;-77
2021/03/04 09:21:59;;;;;;;38.00;31.13;;;12.90;99.90;;;;;;4971233;28;20033;-77
2021/03/04 09:24:26;;;;;;;34.67;27.60;;;12.70;99.90;;;;;;4939386;28;20035;-77
2021/03/04 09:26:52;;;;;;;42.60;28.83;;;12.80;99.90;;;;;;4953903;28;20027;-77
2021/03/04 09:29:19;;;;;;;38.83;28.77;;;12.90;99.90;;;;;;4966836;28;20375;-76
2021/03/04 09:31:50;;;;;;;47.10;30.08;;;12.80;99.90;;;;;;4968320;28;20035;-76
2021/03/04 09:34:16;;;;;;;41.97;28.38;;;12.70;99.90;;;;;;4966186;28;20022;-77
2021/03/04 09:36:41;;;;;;;46.72;30.52;;;12.90;99.90;;;;;;4970234;28;20019;-76
2021/03/04 09:39:07;;;;;;;45.80;32.03;;;13.00;99.90;;;;;;4957782;28;20590;-76
2021/03/04 09:41:33;;;;;;;47.75;31.10;;;12.90;99.90;;;;;;4965092;28;20034;-76
2021/03/04 09:44:06;;;;;;;59.78;33.42;;;12.90;99.90;;;;;;4967295;28;20023;-76
2021/03/04 09:46:40;;;;;;;50.90;30.70;;;12.80;99.90;;;;;;4963878;28;20112;-76
2021/03/04 09:49:17;;;;;;;46.00;31.40;;;12.80;99.90;;;;;;4967420;28;20023;-76
2021/03/04 09:51:46;;;;;;;44.83;33.00;;;12.90;99.90;;;;;;4973003;28;20019;-76
2021/03/04 09:54:24;;;;;;;48.45;32.38;;;13.00;99.90;;;;;;4966545;28;20023;-76
2021/03/04 09:57:03;;;;;;;52.03;31.67;;;13.30;99.90;;;;;;4965893;28;20027;-77
2021/03/04 09:59:29;;;;;;;46.10;29.75;;;13.30;99.90;;;;;;4962806;28;20136;-76
2021/03/04 10:01:55;;;;;;;47.90;31.08;;;13.20;99.90;;;;;;4957646;28;20110;-76
2021/03/04 10:04:26;;;;;;;44.22;31.75;;;13.20;99.90;;;;;;4961859;28;20118;-76
2021/03/04 10:06:52;;;;;;;40.85;30.10;;;13.20;99.90;;;;;;4968139;28;20050;-76
2021/03/04 10:09:25;;;;;;;58.45;33.30;;;13.20;99.90;;;;;;4966093;28;20082;-76
2021/03/04 10:11:52;;;;;;;47.92;34.45;;;13.20;99.90;;;;;;4965985;28;20052;-76
2021/03/04 10:14:17;;;;;;;47.85;32.53;;;13.00;99.90;;;;;;4963786;28;20331;-76
2021/03/04 10:16:54;;;;;;;46.72;31.98;;;12.90;99.90;;;;;;4953923;28;20138;-78
2021/03/04 10:19:20;;;;;;;46.90;31.90;;;13.00;99.90;;;;;;4954125;28;20023;-76
2021/03/04 10:21:46;;;;;;;49.70;31.27;;;13.00;99.90;;;;;;4969764;28;20536;-76
2021/03/04 10:24:13;;;;;;;45.88;29.77;;;12.80;99.90;;;;;;4972636;28;20035;-76
2021/03/04 10:26:40;;;;;;;40.67;30.48;;;12.90;99.90;;;;;;4962910;28;20031;-76
2021/03/04 10:29:06;;;;;;;40.67;29.38;;;12.80;99.90;;;;;;4978098;28;20564;-76
2021/03/04 10:31:32;;;;;;;46.60;34.15;;;12.80;99.90;;;;;;4973746;28;20074;-76
2021/03/04 10:33:58;;;;;;;45.00;31.95;;;12.80;99.90;;;;;;4962439;28;20031;-75
2021/03/04 10:36:24;;;;;;;45.53;33.80;;;12.60;99.90;;;;;;4961947;28;20023;-76
2021/03/04 10:38:50;;;;;;;46.22;34.25;;;12.70;99.90;;;;;;4969219;28;20042;-76
2021/03/04 10:41:16;;;;;;;50.42;33.78;;;12.50;99.90;;;;;;4959907;28;20027;-75
2021/03/04 10:43:41;;;;;;;45.03;33.20;;;12.50;99.90;;;;;;4955356;28;20027;-76
2021/03/04 10:46:07;;;;;;;47.53;31.83;;;12.60;99.90;;;;;;4964967;28;20393;-79
2021/03/04 10:48:33;;;;;;;46.85;31.42;;;12.70;99.90;;;;;;4954785;28;20031;-77
2021/03/04 10:50:59;;;;;;;42.92;29.73;;;12.50;99.90;;;;;;4961910;28;20645;-77
2021/03/04 10:53:25;;;;;;;47.25;31.88;;;12.50;99.90;;;;;;4962803;28;20027;-79
2021/03/04 10:55:51;;;;;;;48.50;33.13;;;12.40;99.90;;;;;;4965809;28;20545;-77
2021/03/04 10:58:17;;;;;;;48.60;31.70;;;12.40;99.90;;;;;;4962921;28;20038;-77
2021/03/04 11:00:43;;;;;;;47.33;32.08;;;12.40;99.90;;;;;;4966069;28;20023;-77
2021/03/04 11:03:09;;;;;;;47.00;30.85;;;12.50;99.90;;;;;;4956208;29;20031;-78
2021/03/04 11:05:35;;;;;;;52.03;29.77;;;12.60;99.90;;;;;;4965085;28;20029;-77
2021/03/04 11:08:01;;;;;;;41.17;26.60;;;12.70;99.90;;;;;;4967908;28;20045;-77
2021/03/04 11:10:27;;;;;;;43.38;30.00;;;12.60;99.90;;;;;;4961581;28;20106;-78
2021/03/04 11:12:53;;;;;;;42.70;28.20;;;12.50;99.90;;;;;;4972718;28;20098;-78
2021/03/04 11:15:19;;;;;;;42.70;28.15;;;12.50;99.90;;;;;;4968511;28;20027;-77
2021/03/04 11:17:45;;;;;;;44.33;29.58;;;12.50;99.90;;;;;;4960412;28;20035;-78
2021/03/04 11:20:11;;;;;;;46.35;28.80;;;12.40;99.90;;;;;;4964996;28;20126;-78
2021/03/04 11:22:37;;;;;;;47.17;29.65;;;12.50;99.90;;;;;;4956529;28;20062;-78
2021/03/04 11:25:04;;;;;;;40.15;28.15;;;12.50;99.90;;;;;;4947219;28;20038;-78
2021/03/04 11:27:30;;;;;;;40.05;27.58;;;12.50;99.90;;;;;;4968083;28;20025;-77
2021/03/04 11:29:56;;;;;;;47.38;27.80;;;12.50;99.90;;;;;;4966283;28;20027;-77
2021/03/04 11:32:22;;;;;;;42.72;25.90;;;12.50;99.90;;;;;;4967303;28;20031;-78
2021/03/04 11:34:48;;;;;;;38.10;24.95;;;12.60;99.90;;;;;;4965208;28;20367;-78
2021/03/04 11:37:14;;;;;;;37.35;24.73;;;12.50;99.90;;;;;;4956277;28;20115;-78
2021/03/04 11:39:40;;;;;;;37.97;23.95;;;12.30;99.90;;;;;;4957842;28;20036;-78
2021/03/04 11:42:06;;;;;;;36.83;25.27;;;12.40;99.90;;;;;;4964001;28;20430;-78
2021/03/04 11:44:32;;;;;;;47.22;25.42;;;12.40;99.90;;;;;;4957785;28;20019;-78
2021/03/04 11:46:58;;;;;;;39.88;25.58;;;12.30;99.90;;;;;;4966801;28;20031;-77
2021/03/04 11:49:24;;;;;;;39.33;24.40;;;12.30;99.90;;;;;;4943912;28;20054;-78
2021/03/04 11:51:50;;;;;;;35.28;22.92;;;12.30;99.90;;;;;;4958310;28;20028;-77
2021/03/04 11:54:16;;;;;;;38.33;23.25;;;12.20;99.90;;;;;;4959802;28;20027;-77
2021/03/04 11:56:42;;;;;;;35.88;23.55;;;12.20;99.90;;;;;;4971543;28;20051;-78
2021/03/04 11:59:11;;;;;;;39.70;25.55;;;12.20;99.90;;;;;;4970030;28;20438;-77
2021/03/04 12:01:39;;;;;;;38.80;23.38;;;12.20;99.90;;;;;;4962842;28;20035;-78
2021/03/04 12:04:06;;;;;;;48.30;23.85;;;12.10;99.90;;;;;;4964139;28;20039;-78
2021/03/04 12:06:32;;;;;;;38.17;23.85;;;12.20;99.90;;;;;;4960921;28;20031;-73
2021/03/04 12:08:58;;;;;;;36.60;23.77;;;12.10;99.90;;;;;;4963386;28;20481;-74
2021/03/04 12:11:24;;;;;;;38.97;25.85;;;12.20;99.90;;;;;;4969372;28;20065;-78
2021/03/04 12:13:50;;;;;;;43.20;25.50;;;12.40;99.90;;;;;;4974010;28;20477;-78
2021/03/04 12:16:16;;;;;;;42.90;26.67;;;12.50;99.90;;;;;;4972559;28;20428;-78
2021/03/04 12:18:42;;;;;;;40.42;27.83;;;12.50;99.90;;;;;;4963899;28;20382;-78
2021/03/04 12:21:08;;;;;;;49.05;29.25;;;12.50;99.90;;;;;;4974032;28;20051;-77
2021/03/04 12:23:34;;;;;;;47.60;28.77;;;12.40;99.90;;;;;;4950013;28;20660;-77
2021/03/04 12:26:00;;;;;;;51.10;29.50;;;12.30;99.90;;;;;;4965730;28;20055;-77
2021/03/04 12:28:26;;;;;;;45.53;29.90;;;12.50;99.90;;;;;;4967508;28;20023;-77
2021/03/04 12:30:55;;;;;;;42.65;30.33;;;12.60;99.90;;;;;;4973445;28;20039;-77
2021/03/04 12:33:21;;;;;;;49.00;31.90;;;12.60;99.90;;;;;;4964632;28;20052;-77
2021/03/04 12:35:47;;;;;;;45.97;31.27;;;12.60;99.90;;;;;;4956223;28;20027;-77
2021/03/04 12:38:12;;;;;;;46.22;31.35;;;12.50;99.90;;;;;;4965788;28;20022;-76
2021/03/04 12:40:39;;;;;;;52.00;33.45;;;12.40;99.90;;;;;;4962994;28;20023;-77